»·PEaware :: UAL304C KSNA-KSFO

UAL304C :: KSNA-KSFO

FLIGHT INFORMATION

Flight Status: Arrived
Operator:
United Airlines
More flights by this operator :: More flights under this callsign
Pilot: Vlad D. (11271)
Aircraft: BOEING 737-300
(B733)
More flights by this aircraft type
Origin: KSNA John Wayne-Orange Co
United States
Destination: KSFO San Francisco Intl
United States
More flights between these airports :: More routes between these airports
Route: +CHANL2 RZS SERFR SERFR2
File this flight plan on PilotEdge
Remarks: Flown with Virtual United - Charter flight for SKW
Altitude:
(Current/Filed)
36,000ft
Speed:
(Current/Filed)
450kts
Departed: 13-Jun-16 06:23 PM
Arrived: 13-Jun-16 07:30 PM
Distance/Time
Traveled:
323nm/1:07
Distance/Time
To Go:
Arrived

Flight Plot

Page will automatically refresh every two minutes.


Map Options




Map Legend


Flown Route
Filed Route
Departure Airport
Arrival Airport
Navaid (VOR, NDB)
Fix

Horizontal Profiles

Position Reports

Time Latitude Longitude Heading Altitude Ground
Speed
13-Jun-16 18:02 33.681868 -117.860777 117 40ft 0kts
13-Jun-16 18:03 33.681868 -117.860777 117 40ft 0kts
13-Jun-16 18:04 33.681868 -117.860777 117 40ft 0kts
13-Jun-16 18:05 33.681868 -117.860777 117 40ft 0kts
13-Jun-16 18:06 33.681868 -117.860777 117 40ft 0kts
13-Jun-16 18:07 33.681868 -117.860777 117 40ft 0kts
13-Jun-16 18:08 33.681868 -117.860777 117 40ft 0kts
13-Jun-16 18:09 33.681868 -117.860777 117 40ft 0kts
13-Jun-16 18:10 33.681868 -117.860777 117 40ft 0kts
13-Jun-16 18:11 33.681959 -117.860990 117 40ft 0kts
13-Jun-16 18:12 33.682115 -117.861231 206 40ft 0kts
13-Jun-16 18:13 33.682115 -117.861231 206 40ft 0kts
13-Jun-16 18:14 33.682115 -117.861231 206 40ft 0kts
13-Jun-16 18:15 33.682115 -117.861231 206 40ft 0kts
13-Jun-16 18:16 33.681992 -117.861305 206 40ft 3kts
13-Jun-16 18:17 33.680595 -117.862879 286 43ft 2kts
13-Jun-16 18:18 33.680737 -117.863263 296 43ft 4kts
13-Jun-16 18:19 33.681242 -117.865264 223 44ft 8kts
13-Jun-16 18:20 33.658987 -117.880048 208 939ft 164kts
13-Jun-16 18:21 33.608928 -117.895111 193 3251ft 235kts
13-Jun-16 18:22 33.557437 -117.932090 214 4874ft 275kts
13-Jun-16 18:23 33.483541 -117.990441 214 7052ft 283kts
13-Jun-16 18:24 33.428030 -118.034040 213 10059ft 295kts
13-Jun-16 18:25 33.352630 -118.120115 259 12697ft 352kts
13-Jun-16 18:26 33.358750 -118.216761 277 14317ft 356kts
13-Jun-16 18:27 33.369002 -118.335928 277 17351ft 365kts
13-Jun-16 18:28 33.404544 -118.445065 324 19948ft 366kts
13-Jun-16 18:29 33.487769 -118.517006 325 22355ft 376kts
13-Jun-16 18:30 33.573946 -118.589961 324 24519ft 385kts
13-Jun-16 18:31 33.662273 -118.664687 324 26428ft 396kts
13-Jun-16 18:32 33.753035 -118.741300 322 28133ft 407kts
13-Jun-16 18:33 33.845034 -118.819640 322 30216ft 403kts
13-Jun-16 18:34 33.935200 -118.896647 321 32038ft 399kts
13-Jun-16 18:35 34.025305 -118.973803 321 33631ft 397kts
13-Jun-16 18:36 34.113953 -119.050895 312 34954ft 392kts
13-Jun-16 18:37 34.175674 -119.157329 301 36012ft 389kts
13-Jun-16 18:38 34.235935 -119.267122 301 36140ft 394kts
13-Jun-16 18:39 34.295821 -119.376404 301 36123ft 392kts
13-Jun-16 18:40 34.355700 -119.486005 301 36124ft 393kts
13-Jun-16 18:41 34.415801 -119.596350 301 36118ft 394kts
13-Jun-16 18:42 34.475765 -119.706080 301 36119ft 394kts
13-Jun-16 18:43 34.544522 -119.806424 318 36122ft 397kts
13-Jun-16 18:44 34.630141 -119.890691 317 36109ft 399kts
13-Jun-16 18:45 34.715400 -119.976054 321 36108ft 401kts
13-Jun-16 18:46 34.800564 -120.061595 321 36111ft 401kts
13-Jun-16 18:47 34.885552 -120.147192 321 36118ft 399kts
13-Jun-16 18:48 34.970294 -120.232779 321 36126ft 398kts
13-Jun-16 18:49 35.055243 -120.318816 321 36128ft 398kts
13-Jun-16 18:50 35.138681 -120.403559 321 36126ft 399kts
13-Jun-16 18:51 35.223696 -120.490141 321 36119ft 400kts
13-Jun-16 18:52 35.308386 -120.576639 321 36118ft 400kts
13-Jun-16 18:53 35.392837 -120.663054 321 36114ft 401kts
13-Jun-16 18:54 35.478419 -120.750279 320 36084ft 405kts
13-Jun-16 18:55 35.564184 -120.838606 320 36064ft 407kts
13-Jun-16 18:56 35.649224 -120.926455 319 36062ft 399kts
13-Jun-16 18:57 35.733508 -121.013766 319 33653ft 409kts
13-Jun-16 18:58 35.818371 -121.101935 319 30668ft 404kts
13-Jun-16 18:59 35.904451 -121.191628 318 27249ft 406kts
13-Jun-16 19:00 35.986875 -121.277760 318 25067ft 381kts
13-Jun-16 19:01 36.064807 -121.359417 318 22823ft 363kts
13-Jun-16 19:02 36.145009 -121.424880 325 20605ft 350kts
13-Jun-16 19:03 36.225320 -121.487673 325 20172ft 349kts
13-Jun-16 19:04 36.306222 -121.551013 325 20171ft 347kts
13-Jun-16 19:05 36.387091 -121.614491 325 20177ft 347kts
13-Jun-16 19:06 36.467900 -121.677682 325 20183ft 347kts
13-Jun-16 19:07 36.549055 -121.740252 325 18690ft 347kts
13-Jun-16 19:08 36.627995 -121.802288 325 16623ft 332kts
13-Jun-16 19:09 36.703911 -121.862502 325 15807ft 330kts
13-Jun-16 19:10 36.786708 -121.907803 342 14143ft 331kts
13-Jun-16 19:11 36.873841 -121.933406 344 12146ft 321kts
13-Jun-16 19:12 36.957086 -121.956977 342 10896ft 288kts
13-Jun-16 19:13 37.030650 -121.984035 341 9501ft 274kts
13-Jun-16 19:14 37.102010 -122.011692 341 7927ft 269kts
13-Jun-16 19:15 37.171344 -122.038809 341 6443ft 262kts
13-Jun-16 19:16 37.235367 -122.063896 340 5944ft 231kts
13-Jun-16 19:17 37.298262 -122.088611 340 6005ft 239kts
13-Jun-16 19:18 37.361276 -122.113411 340 5489ft 241kts
13-Jun-16 19:19 37.422424 -122.135653 341 4732ft 215kts
13-Jun-16 19:20 37.477325 -122.156167 341 4048ft 189kts
13-Jun-16 19:21 37.524386 -122.171266 339 3299ft 168kts
13-Jun-16 19:22 37.551215 -122.211812 296 2624ft 146kts
13-Jun-16 19:23 37.567337 -122.252651 294 1894ft 127kts
13-Jun-16 19:24 37.583747 -122.291832 294 1211ft 125kts
13-Jun-16 19:25 37.600287 -122.329589 294 603ft 123kts
13-Jun-16 19:26 37.615821 -122.368065 292 11ft 107kts
13-Jun-16 19:27 37.621717 -122.382279 278 28ft 12kts
13-Jun-16 19:28 37.621303 -122.383157 200 30ft 0kts
13-Jun-16 19:29 37.620404 -122.383514 198 30ft 8kts
13-Jun-16 19:30 37.619747 -122.384012 214 30ft 0kts
13-Jun-16 19:31 37.619747 -122.384012 214 30ft 0kts
13-Jun-16 19:32 37.619747 -122.384012 214 30ft 0kts
13-Jun-16 19:33 37.619747 -122.384012 214 30ft 0kts

Navigation Log

Ident Type
Flight plan parsing failed, navigation log unavailable